sensor_id;sensor_type;location;lat;lon;timestamp;pressure;altitude;pressure_sealevel;temperature;humidity
7940;BME280;4015;48.888;9.226;2023-04-27T00:00:57;157400.66;;;8.58;81.31
7940;BME280;4015;48.888;9.226;2023-04-27T00:03:22;157407.00;;;8.60;79.87
7940;BME280;4015;48.888;9.226;2023-04-27T00:05:47;157412.16;;;8.62;80.67
7940;BME280;4015;48.888;9.226;2023-04-27T00:08:13;157394.28;;;8.55;81.02
7940;BME280;4015;48.888;9.226;2023-04-27T00:10:38;157393.03;;;8.55;81.03
7940;BME280;4015;48.888;9.226;2023-04-27T00:13:03;157419.78;;;8.65;79.69
7940;BME280;4015;48.888;9.226;2023-04-27T00:15:29;157421.03;;;8.66;79.67
7940;BME280;4015;48.888;9.226;2023-04-27T00:17:54;157422.31;;;8.67;79.75
7940;BME280;4015;48.888;9.226;2023-04-27T00:20:21;157418.50;;;8.65;79.49
7940;BME280;4015;48.888;9.226;2023-04-27T00:22:47;157424.91;;;8.68;79.78
7940;BME280;4015;48.888;9.226;2023-04-27T00:25:13;157423.59;;;8.67;79.93
7940;BME280;4015;48.888;9.226;2023-04-27T00:27:38;157417.22;;;8.64;79.64
7940;BME280;4015;48.888;9.226;2023-04-27T00:30:04;157410.88;;;8.62;79.00
7940;BME280;4015;48.888;9.226;2023-04-27T00:32:30;157412.16;;;8.62;79.04
7940;BME280;4015;48.888;9.226;2023-04-27T00:34:55;157417.22;;;8.64;79.10
7940;BME280;4015;48.888;9.226;2023-04-27T00:37:21;157398.09;;;8.57;79.68
7940;BME280;4015;48.888;9.226;2023-04-27T00:39:46;157380.25;;;8.50;79.31
7940;BME280;4015;48.888;9.226;2023-04-27T00:42:12;157370.03;;;8.46;79.95
7940;BME280;4015;48.888;9.226;2023-04-27T00:44:40;157385.34;;;8.52;80.16
7940;BME280;4015;48.888;9.226;2023-04-27T00:47:05;157375.13;;;8.48;79.44
7940;BME280;4015;48.888;9.226;2023-04-27T00:49:31;157350.91;;;8.38;81.02
7940;BME280;4015;48.888;9.226;2023-04-27T00:51:57;157350.91;;;8.38;81.56
7940;BME280;4015;48.888;9.226;2023-04-27T00:54:22;157353.44;;;8.39;80.27
7940;BME280;4015;48.888;9.226;2023-04-27T00:56:49;157381.53;;;8.50;80.69
7940;BME280;4015;48.888;9.226;2023-04-27T00:59:16;157359.81;;;8.42;81.47
7940;BME280;4015;48.888;9.226;2023-04-27T01:01:41;157348.38;;;8.37;80.17
7940;BME280;4015;48.888;9.226;2023-04-27T01:04:06;157348.38;;;8.37;80.91
7940;BME280;4015;48.888;9.226;2023-04-27T01:06:32;157350.91;;;8.38;81.87
7940;BME280;4015;48.888;9.226;2023-04-27T01:08:57;157329.13;;;8.29;82.18
7940;BME280;4015;48.888;9.226;2023-04-27T01:11:23;157335.56;;;8.32;82.04
7940;BME280;4015;48.888;9.226;2023-04-27T01:13:48;157340.63;;;8.34;81.50
7940;BME280;4015;48.888;9.226;2023-04-27T01:16:16;157339.38;;;8.33;81.19
7940;BME280;4015;48.888;9.226;2023-04-27T01:18:41;157308.75;;;8.21;81.12
7940;BME280;4015;48.888;9.226;2023-04-27T01:21:07;157289.63;;;8.14;81.51
7940;BME280;4015;48.888;9.226;2023-04-27T01:23:32;157308.75;;;8.21;81.65
7940;BME280;4015;48.888;9.226;2023-04-27T01:25:57;157267.97;;;8.05;82.44
7940;BME280;4015;48.888;9.226;2023-04-27T01:28:23;157259.03;;;8.01;82.53
7940;BME280;4015;48.888;9.226;2023-04-27T01:30:48;157252.66;;;7.99;83.34
7940;BME280;4015;48.888;9.226;2023-04-27T01:33:13;157251.38;;;7.98;83.81
7940;BME280;4015;48.888;9.226;2023-04-27T01:35:39;157250.06;;;7.98;83.82
7940;BME280;4015;48.888;9.226;2023-04-27T01:38:04;157261.56;;;8.02;84.47
7940;BME280;4015;48.888;9.226;2023-04-27T01:40:29;157227.16;;;7.89;84.12
7940;BME280;4015;48.888;9.226;2023-04-27T01:42:55;157196.53;;;7.76;84.91
7940;BME280;4015;48.888;9.226;2023-04-27T01:45:20;157172.28;;;7.67;84.76
7940;BME280;4015;48.888;9.226;2023-04-27T01:47:46;157171.03;;;7.66;84.82
7940;BME280;4015;48.888;9.226;2023-04-27T01:50:11;157181.25;;;7.70;84.67
7940;BME280;4015;48.888;9.226;2023-04-27T01:52:36;157168.47;;;7.65;85.34
7940;BME280;4015;48.888;9.226;2023-04-27T01:55:02;157208.03;;;7.81;85.29
7940;BME280;4015;48.888;9.226;2023-04-27T01:57:27;157197.81;;;7.77;85.38
7940;BME280;4015;48.888;9.226;2023-04-27T01:59:52;157206.75;;;7.80;85.36
7940;BME280;4015;48.888;9.226;2023-04-27T02:02:18;157224.59;;;7.88;84.67
7940;BME280;4015;48.888;9.226;2023-04-27T02:04:43;157223.31;;;7.87;83.82
7940;BME280;4015;48.888;9.226;2023-04-27T02:07:09;157199.09;;;7.77;82.41
7940;BME280;4015;48.888;9.226;2023-04-27T02:09:35;157211.84;;;7.82;82.56
7940;BME280;4015;48.888;9.226;2023-04-27T02:12:01;157186.31;;;7.72;83.57
7940;BME280;4015;48.888;9.226;2023-04-27T02:14:26;157219.47;;;7.85;83.91
7940;BME280;4015;48.888;9.226;2023-04-27T02:16:52;157229.69;;;7.90;83.48
7940;BME280;4015;48.888;9.226;2023-04-27T02:19:17;157168.47;;;7.65;84.43
7940;BME280;4015;48.888;9.226;2023-04-27T02:21:43;157182.50;;;7.71;84.42
7940;BME280;4015;48.888;9.226;2023-04-27T02:24:08;157157.03;;;7.61;83.42
7940;BME280;4015;48.888;9.226;2023-04-27T02:26:34;157141.75;;;7.54;84.35
7940;BME280;4015;48.888;9.226;2023-04-27T02:28:59;157173.63;;;7.67;84.53
7940;BME280;4015;48.888;9.226;2023-04-27T02:31:25;157182.50;;;7.71;83.36
7940;BME280;4015;48.888;9.226;2023-04-27T02:33:50;157211.84;;;7.82;83.45
7940;BME280;4015;48.888;9.226;2023-04-27T02:36:16;157178.69;;;7.69;82.69
7940;BME280;4015;48.888;9.226;2023-04-27T02:38:41;157157.03;;;7.61;82.36
7940;BME280;4015;48.888;9.226;2023-04-27T02:41:07;157137.88;;;7.53;83.10
7940;BME280;4015;48.888;9.226;2023-04-27T02:43:32;157149.38;;;7.57;84.23
7940;BME280;4015;48.888;9.226;2023-04-27T02:46:04;157194.00;;;7.75;84.76
7940;BME280;4015;48.888;9.226;2023-04-27T02:48:29;157178.69;;;7.69;85.16
7940;BME280;4015;48.888;9.226;2023-04-27T02:50:55;157201.63;;;7.78;83.66
7940;BME280;4015;48.888;9.226;2023-04-27T02:53:21;157215.66;;;7.84;83.66
7940;BME280;4015;48.888;9.226;2023-04-27T02:55:46;157220.78;;;7.86;83.79
7940;BME280;4015;48.888;9.226;2023-04-27T02:58:12;157229.69;;;7.90;83.13
7940;BME280;4015;48.888;9.226;2023-04-27T03:00:38;157243.72;;;7.95;82.80
7940;BME280;4015;48.888;9.226;2023-04-27T03:03:05;157246.25;;;7.96;82.79
7940;BME280;4015;48.888;9.226;2023-04-27T03:05:30;157225.88;;;7.88;83.00
7940;BME280;4015;48.888;9.226;2023-04-27T03:07:56;157216.94;;;7.84;83.32
7940;BME280;4015;48.888;9.226;2023-04-27T03:10:21;157230.97;;;7.90;83.29
7940;BME280;4015;48.888;9.226;2023-04-27T03:12:47;157239.91;;;7.94;82.66
7940;BME280;4015;48.888;9.226;2023-04-27T03:15:12;157248.81;;;7.97;81.95
7940;BME280;4015;48.888;9.226;2023-04-27T03:17:37;157246.25;;;7.96;82.04
7940;BME280;4015;48.888;9.226;2023-04-27T03:20:03;157256.47;;;8.00;82.22
7940;BME280;4015;48.888;9.226;2023-04-27T03:22:31;157247.53;;;7.97;81.83
7940;BME280;4015;48.888;9.226;2023-04-27T03:24:56;157215.66;;;7.84;82.53
7940;BME280;4015;48.888;9.226;2023-04-27T03:27:21;157210.56;;;7.82;82.20
7940;BME280;4015;48.888;9.226;2023-04-27T03:29:50;157196.53;;;7.76;82.51
7940;BME280;4015;48.888;9.226;2023-04-27T03:32:17;157188.91;;;7.73;83.34
7940;BME280;4015;48.888;9.226;2023-04-27T03:34:42;157204.22;;;7.79;83.36
7940;BME280;4015;48.888;9.226;2023-04-27T03:37:07;157200.34;;;7.78;83.01
7940;BME280;4015;48.888;9.226;2023-04-27T03:39:33;157214.38;;;7.83;82.39
7940;BME280;4015;48.888;9.226;2023-04-27T03:41:58;157188.91;;;7.73;84.14
7940;BME280;4015;48.888;9.226;2023-04-27T03:44:23;157208.03;;;7.81;84.41
7940;BME280;4015;48.888;9.226;2023-04-27T03:46:49;157216.94;;;7.84;82.84
7940;BME280;4015;48.888;9.226;2023-04-27T03:49:14;157208.03;;;7.81;82.76
7940;BME280;4015;48.888;9.226;2023-04-27T03:51:39;157151.91;;;7.58;82.41
7940;BME280;4015;48.888;9.226;2023-04-27T03:54:06;157140.44;;;7.54;82.56
7940;BME280;4015;48.888;9.226;2023-04-27T03:56:31;157153.19;;;7.59;82.91
7940;BME280;4015;48.888;9.226;2023-04-27T03:58:57;157153.19;;;7.59;83.34
7940;BME280;4015;48.888;9.226;2023-04-27T04:01:22;157174.88;;;7.68;83.07
7940;BME280;4015;48.888;9.226;2023-04-27T04:03:49;157208.03;;;7.81;82.43
7940;BME280;4015;48.888;9.226;2023-04-27T04:06:15;157200.34;;;7.78;82.85
7940;BME280;4015;48.888;9.226;2023-04-27T04:08:41;157174.88;;;7.68;83.83
7940;BME280;4015;48.888;9.226;2023-04-27T04:11:06;157155.72;;;7.60;83.13
7940;BME280;4015;48.888;9.226;2023-04-27T04:13:31;157155.72;;;7.60;83.35
7940;BME280;4015;48.888;9.226;2023-04-27T04:16:01;157130.25;;;7.50;84.37
7940;BME280;4015;48.888;9.226;2023-04-27T04:18:27;157127.72;;;7.49;85.61
7940;BME280;4015;48.888;9.226;2023-04-27T04:20:52;157168.47;;;7.65;85.78
7940;BME280;4015;48.888;9.226;2023-04-27T04:23:17;157188.91;;;7.73;85.11
7940;BME280;4015;48.888;9.226;2023-04-27T04:25:44;157185.06;;;7.72;83.53
7940;BME280;4015;48.888;9.226;2023-04-27T04:28:12;157183.78;;;7.71;82.77
7940;BME280;4015;48.888;9.226;2023-04-27T04:30:37;157187.59;;;7.73;82.27
7940;BME280;4015;48.888;9.226;2023-04-27T04:33:03;157201.63;;;7.78;81.94
7940;BME280;4015;48.888;9.226;2023-04-27T04:35:29;157232.22;;;7.91;81.97
7940;BME280;4015;48.888;9.226;2023-04-27T04:37:56;157220.78;;;7.86;81.56
7940;BME280;4015;48.888;9.226;2023-04-27T04:40:22;157227.16;;;7.89;82.13
7940;BME280;4015;48.888;9.226;2023-04-27T04:42:47;157255.22;;;8.00;81.65
7940;BME280;4015;48.888;9.226;2023-04-27T04:45:12;157262.84;;;8.03;80.84
7940;BME280;4015;48.888;9.226;2023-04-27T04:47:39;157239.91;;;7.94;81.77
7940;BME280;4015;48.888;9.226;2023-04-27T04:50:06;157227.16;;;7.89;81.50
7940;BME280;4015;48.888;9.226;2023-04-27T04:52:32;157247.53;;;7.97;81.88
7940;BME280;4015;48.888;9.226;2023-04-27T04:54:58;157279.41;;;8.09;81.53
7940;BME280;4015;48.888;9.226;2023-04-27T04:57:23;157279.41;;;8.09;80.72
7940;BME280;4015;48.888;9.226;2023-04-27T04:59:49;157278.13;;;8.09;81.30
7940;BME280;4015;48.888;9.226;2023-04-27T05:02:14;157302.41;;;8.19;80.98
7940;BME280;4015;48.888;9.226;2023-04-27T05:04:40;157301.13;;;8.18;80.23
7940;BME280;4015;48.888;9.226;2023-04-27T05:07:05;157308.75;;;8.21;81.41
7940;BME280;4015;48.888;9.226;2023-04-27T05:09:30;157339.38;;;8.33;79.71
7940;BME280;4015;48.888;9.226;2023-04-27T05:11:56;157316.44;;;8.24;79.46
7940;BME280;4015;48.888;9.226;2023-04-27T05:14:21;157336.81;;;8.32;80.06
7940;BME280;4015;48.888;9.226;2023-04-27T05:16:46;157366.22;;;8.44;80.66
7940;BME280;4015;48.888;9.226;2023-04-27T05:19:13;157329.13;;;8.29;80.05
7940;BME280;4015;48.888;9.226;2023-04-27T05:21:43;157361.06;;;8.42;79.95
7940;BME280;4015;48.888;9.226;2023-04-27T05:24:08;157366.22;;;8.44;80.79
7940;BME280;4015;48.888;9.226;2023-04-27T05:26:33;157377.72;;;8.49;81.05
7940;BME280;4015;48.888;9.226;2023-04-27T05:28:59;157426.19;;;8.68;79.80
7940;BME280;4015;48.888;9.226;2023-04-27T05:31:24;157447.84;;;8.77;78.89
7940;BME280;4015;48.888;9.226;2023-04-27T05:33:50;157437.63;;;8.73;80.34
7940;BME280;4015;48.888;9.226;2023-04-27T05:36:15;157432.53;;;8.71;80.41
7940;BME280;4015;48.888;9.226;2023-04-27T05:38:41;157464.44;;;8.83;81.31
7940;BME280;4015;48.888;9.226;2023-04-27T05:41:07;157479.75;;;8.89;81.57
7940;BME280;4015;48.888;9.226;2023-04-27T05:43:32;157482.28;;;8.90;81.65
7940;BME280;4015;48.888;9.226;2023-04-27T05:45:59;157504.00;;;8.99;82.91
7940;BME280;4015;48.888;9.226;2023-04-27T05:48:24;157525.69;;;9.08;83.30
7940;BME280;4015;48.888;9.226;2023-04-27T05:50:58;157553.78;;;9.19;82.20
7940;BME280;4015;48.888;9.226;2023-04-27T05:53:23;157574.19;;;9.27;81.21
7940;BME280;4015;48.888;9.226;2023-04-27T05:55:49;157553.78;;;9.19;81.32
7940;BME280;4015;48.888;9.226;2023-04-27T05:58:14;157602.28;;;9.38;80.17
7940;BME280;4015;48.888;9.226;2023-04-27T06:00:40;157601.00;;;9.38;79.97
7940;BME280;4015;48.888;9.226;2023-04-27T06:03:06;157629.09;;;9.49;77.24
7940;BME280;4015;48.888;9.226;2023-04-27T06:05:31;157664.81;;;9.63;76.39
7940;BME280;4015;48.888;9.226;2023-04-27T06:07:58;157639.28;;;9.53;77.11
7940;BME280;4015;48.888;9.226;2023-04-27T06:10:23;157649.50;;;9.57;78.43
7940;BME280;4015;48.888;9.226;2023-04-27T06:12:49;157657.13;;;9.60;78.44
7940;BME280;4015;48.888;9.226;2023-04-27T06:15:14;157728.66;;;9.89;77.82
7940;BME280;4015;48.888;9.226;2023-04-27T06:17:40;157705.66;;;9.80;76.83
7940;BME280;4015;48.888;9.226;2023-04-27T06:20:08;157728.66;;;9.89;75.34
7940;BME280;4015;48.888;9.226;2023-04-27T06:22:34;157755.47;;;9.99;75.36
7940;BME280;4015;48.888;9.226;2023-04-27T06:25:01;157750.34;;;9.97;76.45
7940;BME280;4015;48.888;9.226;2023-04-27T06:27:26;157804.00;;;10.19;75.04
7940;BME280;4015;48.888;9.226;2023-04-27T06:29:51;157833.38;;;10.31;73.53
7940;BME280;4015;48.888;9.226;2023-04-27T06:32:17;157901.13;;;10.58;74.24
7940;BME280;4015;48.888;9.226;2023-04-27T06:34:42;157962.44;;;10.82;73.10
7940;BME280;4015;48.888;9.226;2023-04-27T06:37:07;157910.03;;;10.61;72.84
7940;BME280;4015;48.888;9.226;2023-04-27T06:39:33;157888.34;;;10.52;72.86
7940;BME280;4015;48.888;9.226;2023-04-27T06:41:59;157941.97;;;10.74;73.52
7940;BME280;4015;48.888;9.226;2023-04-27T06:44:24;157976.50;;;10.88;73.43
7940;BME280;4015;48.888;9.226;2023-04-27T06:46:50;157987.97;;;10.92;73.36
7940;BME280;4015;48.888;9.226;2023-04-27T06:49:15;158085.06;;;11.31;71.54
7940;BME280;4015;48.888;9.226;2023-04-27T06:51:41;158086.38;;;11.31;72.75
7940;BME280;4015;48.888;9.226;2023-04-27T06:54:06;158105.53;;;11.39;72.26
7940;BME280;4015;48.888;9.226;2023-04-27T06:56:32;158104.28;;;11.39;69.92
7940;BME280;4015;48.888;9.226;2023-04-27T06:58:58;158119.59;;;11.45;69.99
7940;BME280;4015;48.888;9.226;2023-04-27T07:01:24;158137.50;;;11.52;70.56
7940;BME280;4015;48.888;9.226;2023-04-27T07:03:49;158182.25;;;11.70;69.58
7940;BME280;4015;48.888;9.226;2023-04-27T07:06:15;158225.72;;;11.87;68.06
7940;BME280;4015;48.888;9.226;2023-04-27T07:08:41;158269.19;;;12.04;68.31
7940;BME280;4015;48.888;9.226;2023-04-27T07:11:07;158361.28;;;12.41;66.74
7940;BME280;4015;48.888;9.226;2023-04-27T07:13:32;158411.16;;;12.61;66.50
7940;BME280;4015;48.888;9.226;2023-04-27T07:15:57;158434.19;;;12.70;66.13
7940;BME280;4015;48.888;9.226;2023-04-27T07:18:23;158429.03;;;12.68;66.94
7940;BME280;4015;48.888;9.226;2023-04-27T07:20:50;158499.44;;;12.96;65.82
7940;BME280;4015;48.888;9.226;2023-04-27T07:23:15;158507.06;;;12.99;66.14
7940;BME280;4015;48.888;9.226;2023-04-27T07:25:41;158537.78;;;13.11;64.53
7940;BME280;4015;48.888;9.226;2023-04-27T07:28:07;158551.88;;;13.17;64.43
7940;BME280;4015;48.888;9.226;2023-04-27T07:30:33;158522.44;;;13.05;64.53
7940;BME280;4015;48.888;9.226;2023-04-27T07:33:00;158532.69;;;13.09;64.01
7940;BME280;4015;48.888;9.226;2023-04-27T07:35:25;158594.16;;;13.34;65.16
7940;BME280;4015;48.888;9.226;2023-04-27T07:37:51;158601.81;;;13.37;63.09
7940;BME280;4015;48.888;9.226;2023-04-27T07:40:16;158580.06;;;13.28;65.25
7940;BME280;4015;48.888;9.226;2023-04-27T07:42:42;158624.88;;;13.46;62.94
7940;BME280;4015;48.888;9.226;2023-04-27T07:45:08;158784.84;;;14.10;63.17
7940;BME280;4015;48.888;9.226;2023-04-27T07:47:34;158978.25;;;14.87;62.28
7940;BME280;4015;48.888;9.226;2023-04-27T07:49:59;158988.50;;;14.91;59.33
7940;BME280;4015;48.888;9.226;2023-04-27T07:52:25;159002.59;;;14.96;58.56
7940;BME280;4015;48.888;9.226;2023-04-27T07:54:50;159053.81;;;15.17;59.75
7940;BME280;4015;48.888;9.226;2023-04-27T07:57:16;159057.66;;;15.18;60.49
7940;BME280;4015;48.888;9.226;2023-04-27T07:59:41;159271.72;;;16.03;57.65
7940;BME280;4015;48.888;9.226;2023-04-27T08:02:06;159582.00;;;17.26;55.09
7940;BME280;4015;48.888;9.226;2023-04-27T08:04:32;159469.16;;;16.82;55.62
7940;BME280;4015;48.888;9.226;2023-04-27T08:06:58;159625.63;;;17.44;53.91
7940;BME280;4015;48.888;9.226;2023-04-27T08:09:23;159786.03;;;18.08;53.55
7940;BME280;4015;48.888;9.226;2023-04-27T08:11:49;159965.75;;;18.79;50.66
7940;BME280;4015;48.888;9.226;2023-04-27T08:14:14;160101.84;;;19.33;49.12
7940;BME280;4015;48.888;9.226;2023-04-27T08:16:41;159985.03;;;18.86;48.76
7940;BME280;4015;48.888;9.226;2023-04-27T08:19:07;159973.47;;;18.82;51.27
7940;BME280;4015;48.888;9.226;2023-04-27T08:21:34;160122.38;;;19.41;48.14
7940;BME280;4015;48.888;9.226;2023-04-27T08:23:59;160051.78;;;19.13;50.72
7940;BME280;4015;48.888;9.226;2023-04-27T08:26:24;160213.63;;;19.77;47.63
7940;BME280;4015;48.888;9.226;2023-04-27T08:28:50;160185.38;;;19.66;48.21
7940;BME280;4015;48.888;9.226;2023-04-27T08:31:15;160223.91;;;19.81;48.55
7940;BME280;4015;48.888;9.226;2023-04-27T08:33:41;160108.25;;;19.35;48.57
7940;BME280;4015;48.888;9.226;2023-04-27T08:36:06;160220.03;;;19.80;48.21
7940;BME280;4015;48.888;9.226;2023-04-27T08:38:34;160311.25;;;20.16;47.35
7940;BME280;4015;48.888;9.226;2023-04-27T08:41:00;160392.22;;;20.48;48.34
7940;BME280;4015;48.888;9.226;2023-04-27T08:43:25;160295.81;;;20.10;49.82
7940;BME280;4015;48.888;9.226;2023-04-27T08:45:51;160347.25;;;20.30;47.28
7940;BME280;4015;48.888;9.226;2023-04-27T08:48:17;160357.50;;;20.34;49.85
7940;BME280;4015;48.888;9.226;2023-04-27T08:50:44;160466.75;;;20.78;46.31
7940;BME280;4015;48.888;9.226;2023-04-27T08:53:18;160570.91;;;21.19;45.58
7940;BME280;4015;48.888;9.226;2023-04-27T08:55:45;160666.06;;;21.57;43.97
7940;BME280;4015;48.888;9.226;2023-04-27T08:58:11;160678.88;;;21.62;41.89
7940;BME280;4015;48.888;9.226;2023-04-27T09:00:41;160532.31;;;21.04;42.99
7940;BME280;4015;48.888;9.226;2023-04-27T09:03:17;160540.03;;;21.07;41.67
7940;BME280;4015;48.888;9.226;2023-04-27T09:05:46;160402.53;;;20.52;42.15
7940;BME280;4015;48.888;9.226;2023-04-27T09:08:12;160608.19;;;21.34;41.68
7940;BME280;4015;48.888;9.226;2023-04-27T09:10:47;160578.56;;;21.22;40.95
7940;BME280;4015;48.888;9.226;2023-04-27T09:13:13;160668.63;;;21.58;44.67
7940;BME280;4015;48.888;9.226;2023-04-27T09:15:44;160815.25;;;22.16;38.61
7940;BME280;4015;48.888;9.226;2023-04-27T09:18:20;160714.91;;;21.76;40.07
7940;BME280;4015;48.888;9.226;2023-04-27T09:20:48;160554.19;;;21.12;40.45
7940;BME280;4015;48.888;9.226;2023-04-27T09:23:34;160803.66;;;22.11;39.46
7940;BME280;4015;48.888;9.226;2023-04-27T09:26:01;160857.69;;;22.32;39.71
7940;BME280;4015;48.888;9.226;2023-04-27T09:28:29;160709.75;;;21.74;44.37
7940;BME280;4015;48.888;9.226;2023-04-27T09:30:57;160740.59;;;21.86;41.38
7940;BME280;4015;48.888;9.226;2023-04-27T09:33:33;160749.63;;;21.90;40.32
7940;BME280;4015;48.888;9.226;2023-04-27T09:36:03;160849.97;;;22.29;38.92
7940;BME280;4015;48.888;9.226;2023-04-27T09:38:29;160874.41;;;22.39;39.94
7940;BME280;4015;48.888;9.226;2023-04-27T09:40:56;160906.56;;;22.52;40.71
7940;BME280;4015;48.888;9.226;2023-04-27T09:43:22;160928.41;;;22.60;37.83
7940;BME280;4015;48.888;9.226;2023-04-27T09:45:49;161097.03;;;23.27;38.63
7940;BME280;4015;48.888;9.226;2023-04-27T09:48:15;161042.97;;;23.06;37.80
7940;BME280;4015;48.888;9.226;2023-04-27T09:50:41;161026.22;;;22.99;38.63
7940;BME280;4015;48.888;9.226;2023-04-27T09:53:18;161032.69;;;23.02;37.26
7940;BME280;4015;48.888;9.226;2023-04-27T09:58:57;160887.28;;;22.44;39.50
7940;BME280;4015;48.888;9.226;2023-04-27T10:01:35;160866.69;;;22.36;39.54
7940;BME280;4015;48.888;9.226;2023-04-27T10:07:14;161116.31;;;23.35;40.18
7940;BME280;4015;48.888;9.226;2023-04-27T10:09:44;161129.19;;;23.40;39.48
7940;BME280;4015;48.888;9.226;2023-04-27T10:14:58;161402.16;;;24.48;39.14
7940;BME280;4015;48.888;9.226;2023-04-27T10:17:28;161368.69;;;24.35;38.60
7940;BME280;4015;48.888;9.226;2023-04-27T10:19:56;161261.78;;;23.92;36.63
7940;BME280;4015;48.888;9.226;2023-04-27T10:22:22;161336.47;;;24.22;36.60
7940;BME280;4015;48.888;9.226;2023-04-27T10:24:50;161305.56;;;24.10;38.02
7940;BME280;4015;48.888;9.226;2023-04-27T10:27:17;161353.19;;;24.29;36.76
7940;BME280;4015;48.888;9.226;2023-04-27T10:29:45;161367.41;;;24.34;36.40
7940;BME280;4015;48.888;9.226;2023-04-27T10:32:24;161288.81;;;24.03;34.66
7940;BME280;4015;48.888;9.226;2023-04-27T10:34:51;161299.09;;;24.07;39.50
7940;BME280;4015;48.888;9.226;2023-04-27T10:37:41;161569.63;;;25.14;35.99
7940;BME280;4015;48.888;9.226;2023-04-27T10:40:08;161479.41;;;24.79;35.14
7940;BME280;4015;48.888;9.226;2023-04-27T10:42:34;161564.44;;;25.12;37.93
7940;BME280;4015;48.888;9.226;2023-04-27T10:45:00;161550.28;;;25.07;37.70
7940;BME280;4015;48.888;9.226;2023-04-27T10:47:40;161717.81;;;25.73;37.66
7940;BME280;4015;48.888;9.226;2023-04-27T10:50:07;161632.69;;;25.39;34.66
7940;BME280;4015;48.888;9.226;2023-04-27T10:52:35;161350.63;;;24.28;38.89
7940;BME280;4015;48.888;9.226;2023-04-27T10:55:21;161530.91;;;24.99;37.84
7940;BME280;4015;48.888;9.226;2023-04-27T10:57:54;161789.94;;;26.01;36.04
7940;BME280;4015;48.888;9.226;2023-04-27T11:00:28;161887.94;;;26.40;35.84
7940;BME280;4015;48.888;9.226;2023-04-27T11:02:56;161876.28;;;26.35;35.33
7940;BME280;4015;48.888;9.226;2023-04-27T11:05:26;161826.03;;;26.16;33.54
7940;BME280;4015;48.888;9.226;2023-04-27T11:08:07;161706.16;;;25.68;33.13
7940;BME280;4015;48.888;9.226;2023-04-27T11:10:37;161547.72;;;25.06;37.22
7940;BME280;4015;48.888;9.226;2023-04-27T11:13:10;161658.47;;;25.49;33.41
7940;BME280;4015;48.888;9.226;2023-04-27T11:15:47;161626.28;;;25.37;35.75
7940;BME280;4015;48.888;9.226;2023-04-27T11:18:13;161617.28;;;25.33;36.92
7940;BME280;4015;48.888;9.226;2023-04-27T11:20:40;161625.00;;;25.36;35.75
7940;BME280;4015;48.888;9.226;2023-04-27T11:23:06;161860.81;;;26.29;35.64
7940;BME280;4015;48.888;9.226;2023-04-27T11:25:32;161761.63;;;25.90;34.65
7940;BME280;4015;48.888;9.226;2023-04-27T11:27:57;161872.44;;;26.34;33.52
7940;BME280;4015;48.888;9.226;2023-04-27T11:30:24;162140.59;;;27.40;32.75
7940;BME280;4015;48.888;9.226;2023-04-27T11:32:50;162050.34;;;27.04;32.94
7940;BME280;4015;48.888;9.226;2023-04-27T11:35:16;161994.88;;;26.82;34.66
7940;BME280;4015;48.888;9.226;2023-04-27T11:37:42;161952.38;;;26.66;34.24
7940;BME280;4015;48.888;9.226;2023-04-27T11:40:08;161805.38;;;26.07;36.32
7940;BME280;4015;48.888;9.226;2023-04-27T11:42:35;161835.03;;;26.19;33.89
7940;BME280;4015;48.888;9.226;2023-04-27T11:45:02;161729.41;;;25.77;35.12
7940;BME280;4015;48.888;9.226;2023-04-27T11:47:32;161911.13;;;26.49;35.85
7940;BME280;4015;48.888;9.226;2023-04-27T11:49:59;161885.28;;;26.39;36.05
7940;BME280;4015;48.888;9.226;2023-04-27T11:52:32;161735.84;;;25.80;35.49
7940;BME280;4015;48.888;9.226;2023-04-27T11:54:58;161786.06;;;26.00;33.80
7940;BME280;4015;48.888;9.226;2023-04-27T11:57:29;161466.53;;;24.73;34.50
7940;BME280;4015;48.888;9.226;2023-04-27T11:59:57;161467.81;;;24.74;36.25
7940;BME280;4015;48.888;9.226;2023-04-27T12:02:24;161694.53;;;25.64;33.77
7940;BME280;4015;48.888;9.226;2023-04-27T12:04:51;161762.91;;;25.91;33.58
7940;BME280;4015;48.888;9.226;2023-04-27T12:07:16;161791.22;;;26.02;37.58
7940;BME280;4015;48.888;9.226;2023-04-27T12:09:42;161788.63;;;26.01;34.41
7940;BME280;4015;48.888;9.226;2023-04-27T12:12:08;162121.28;;;27.32;33.89
7940;BME280;4015;48.888;9.226;2023-04-27T12:14:33;161974.28;;;26.74;35.04
7940;BME280;4015;48.888;9.226;2023-04-27T12:16:59;161784.78;;;25.99;39.46
7940;BME280;4015;48.888;9.226;2023-04-27T12:19:24;162050.34;;;27.04;37.30
7940;BME280;4015;48.888;9.226;2023-04-27T12:21:54;162046.44;;;27.03;34.93
7940;BME280;4015;48.888;9.226;2023-04-27T12:24:19;162112.28;;;27.29;33.80
7940;BME280;4015;48.888;9.226;2023-04-27T12:26:46;162307.03;;;28.06;35.94
7940;BME280;4015;48.888;9.226;2023-04-27T12:29:12;162446.38;;;28.61;33.36
7940;BME280;4015;48.888;9.226;2023-04-27T12:31:37;162095.50;;;27.22;34.40
7940;BME280;4015;48.888;9.226;2023-04-27T12:34:03;162367.66;;;28.30;32.38
7940;BME280;4015;48.888;9.226;2023-04-27T12:36:28;162246.41;;;27.82;35.33
7940;BME280;4015;48.888;9.226;2023-04-27T12:38:58;162105.78;;;27.26;32.96
7940;BME280;4015;48.888;9.226;2023-04-27T12:41:23;162104.50;;;27.26;35.95
7940;BME280;4015;48.888;9.226;2023-04-27T12:43:49;161983.31;;;26.78;33.18
7940;BME280;4015;48.888;9.226;2023-04-27T12:46:15;161663.63;;;25.51;35.97
7940;BME280;4015;48.888;9.226;2023-04-27T12:48:42;161555.47;;;25.09;37.31
7940;BME280;4015;48.888;9.226;2023-04-27T12:51:07;161595.38;;;25.24;36.99
7940;BME280;4015;48.888;9.226;2023-04-27T12:53:33;161606.97;;;25.29;37.49
7940;BME280;4015;48.888;9.226;2023-04-27T12:55:58;161596.66;;;25.25;37.78
7940;BME280;4015;48.888;9.226;2023-04-27T12:58:26;161641.72;;;25.43;37.05
7940;BME280;4015;48.888;9.226;2023-04-27T13:00:51;161610.81;;;25.31;35.95
7940;BME280;4015;48.888;9.226;2023-04-27T13:03:16;161628.84;;;25.38;37.19
7940;BME280;4015;48.888;9.226;2023-04-27T13:05:42;161609.53;;;25.30;37.70
7940;BME280;4015;48.888;9.226;2023-04-27T13:08:08;161684.25;;;25.60;36.42
7940;BME280;4015;48.888;9.226;2023-04-27T13:10:33;161733.25;;;25.79;36.58
7940;BME280;4015;48.888;9.226;2023-04-27T13:13:00;161869.81;;;26.33;37.42
7940;BME280;4015;48.888;9.226;2023-04-27T13:15:26;161872.44;;;26.34;33.20
7940;BME280;4015;48.888;9.226;2023-04-27T13:17:52;161753.84;;;25.87;34.99
7940;BME280;4015;48.888;9.226;2023-04-27T13:20:18;161719.09;;;25.73;37.07
7940;BME280;4015;48.888;9.226;2023-04-27T13:22:43;161836.31;;;26.20;38.84